sensor_id;sensor_type;location;lat;lon;timestamp;P1;durP1;ratioP1;P2;durP2;ratioP2
19280;SDS011;9774;52.034;5.342;2023-07-29T00:00:17;3.15;;;1.27;;
19280;SDS011;9774;52.034;5.342;2023-07-29T00:02:44;1.13;;;0.80;;
19280;SDS011;9774;52.034;5.342;2023-07-29T00:05:12;0.70;;;0.70;;
19280;SDS011;9774;52.034;5.342;2023-07-29T00:07:39;1.15;;;0.75;;
19280;SDS011;9774;52.034;5.342;2023-07-29T00:10:07;0.82;;;0.60;;
19280;SDS011;9774;52.034;5.342;2023-07-29T00:12:34;0.95;;;0.85;;
19280;SDS011;9774;52.034;5.342;2023-07-29T00:15:03;1.02;;;0.60;;
19280;SDS011;9774;52.034;5.342;2023-07-29T00:17:31;0.80;;;0.40;;
19280;SDS011;9774;52.034;5.342;2023-07-29T00:19:58;1.65;;;0.50;;
19280;SDS011;9774;52.034;5.342;2023-07-29T00:22:25;2.13;;;0.85;;
19280;SDS011;9774;52.034;5.342;2023-07-29T00:24:53;0.80;;;0.73;;
19280;SDS011;9774;52.034;5.342;2023-07-29T00:27:22;1.60;;;0.80;;
19280;SDS011;9774;52.034;5.342;2023-07-29T00:29:49;1.08;;;0.80;;
19280;SDS011;9774;52.034;5.342;2023-07-29T00:32:18;1.10;;;0.70;;
19280;SDS011;9774;52.034;5.342;2023-07-29T00:34:45;2.17;;;1.10;;
19280;SDS011;9774;52.034;5.342;2023-07-29T00:37:12;1.48;;;0.60;;
19280;SDS011;9774;52.034;5.342;2023-07-29T00:39:39;2.10;;;1.02;;
19280;SDS011;9774;52.034;5.342;2023-07-29T00:42:07;3.97;;;0.82;;
19280;SDS011;9774;52.034;5.342;2023-07-29T00:44:35;1.27;;;0.85;;
19280;SDS011;9774;52.034;5.342;2023-07-29T00:47:02;1.63;;;0.90;;
19280;SDS011;9774;52.034;5.342;2023-07-29T00:49:32;2.90;;;1.10;;
19280;SDS011;9774;52.034;5.342;2023-07-29T00:51:59;4.57;;;1.67;;
19280;SDS011;9774;52.034;5.342;2023-07-29T00:54:26;1.65;;;0.90;;
19280;SDS011;9774;52.034;5.342;2023-07-29T00:56:54;1.20;;;0.82;;
19280;SDS011;9774;52.034;5.342;2023-07-29T00:59:21;0.98;;;0.70;;
19280;SDS011;9774;52.034;5.342;2023-07-29T01:01:49;1.35;;;0.68;;
19280;SDS011;9774;52.034;5.342;2023-07-29T01:04:16;1.30;;;0.70;;
19280;SDS011;9774;52.034;5.342;2023-07-29T01:06:46;1.77;;;0.80;;
19280;SDS011;9774;52.034;5.342;2023-07-29T01:09:20;1.13;;;0.80;;
19280;SDS011;9774;52.034;5.342;2023-07-29T01:11:58;1.10;;;0.60;;
19280;SDS011;9774;52.034;5.342;2023-07-29T01:14:34;0.73;;;0.55;;
19280;SDS011;9774;52.034;5.342;2023-07-29T01:17:09;1.15;;;0.70;;
19280;SDS011;9774;52.034;5.342;2023-07-29T01:19:45;1.05;;;0.70;;
19280;SDS011;9774;52.034;5.342;2023-07-29T01:22:23;1.23;;;0.90;;
19280;SDS011;9774;52.034;5.342;2023-07-29T01:24:52;1.40;;;0.73;;
19280;SDS011;9774;52.034;5.342;2023-07-29T01:27:20;1.10;;;0.80;;
19280;SDS011;9774;52.034;5.342;2023-07-29T01:29:47;1.25;;;0.77;;
19280;SDS011;9774;52.034;5.342;2023-07-29T01:32:14;1.00;;;0.90;;
19280;SDS011;9774;52.034;5.342;2023-07-29T01:34:47;1.58;;;0.80;;
19280;SDS011;9774;52.034;5.342;2023-07-29T01:37:27;2.83;;;1.00;;
19280;SDS011;9774;52.034;5.342;2023-07-29T01:40:00;1.48;;;0.98;;
19280;SDS011;9774;52.034;5.342;2023-07-29T01:42:28;4.32;;;1.00;;
19280;SDS011;9774;52.034;5.342;2023-07-29T01:44:55;1.98;;;0.93;;
19280;SDS011;9774;52.034;5.342;2023-07-29T01:47:23;0.82;;;0.70;;
19280;SDS011;9774;52.034;5.342;2023-07-29T01:49:50;1.23;;;1.00;;
19280;SDS011;9774;52.034;5.342;2023-07-29T01:52:18;1.35;;;1.10;;
19280;SDS011;9774;52.034;5.342;2023-07-29T01:54:45;2.20;;;1.15;;
19280;SDS011;9774;52.034;5.342;2023-07-29T01:57:13;1.20;;;1.10;;
19280;SDS011;9774;52.034;5.342;2023-07-29T01:59:41;2.90;;;1.15;;
19280;SDS011;9774;52.034;5.342;2023-07-29T02:02:08;3.03;;;1.45;;
19280;SDS011;9774;52.034;5.342;2023-07-29T02:04:35;3.25;;;1.33;;
19280;SDS011;9774;52.034;5.342;2023-07-29T02:07:03;1.10;;;0.88;;
19280;SDS011;9774;52.034;5.342;2023-07-29T02:09:30;1.80;;;1.13;;
19280;SDS011;9774;52.034;5.342;2023-07-29T02:11:58;1.70;;;1.20;;
19280;SDS011;9774;52.034;5.342;2023-07-29T02:14:26;1.95;;;1.25;;
19280;SDS011;9774;52.034;5.342;2023-07-29T02:16:53;1.70;;;1.08;;
19280;SDS011;9774;52.034;5.342;2023-07-29T02:19:21;3.13;;;1.10;;
19280;SDS011;9774;52.034;5.342;2023-07-29T02:21:48;2.05;;;1.20;;
19280;SDS011;9774;52.034;5.342;2023-07-29T02:24:15;3.10;;;1.33;;
19280;SDS011;9774;52.034;5.342;2023-07-29T02:26:42;1.83;;;1.33;;
19280;SDS011;9774;52.034;5.342;2023-07-29T02:29:10;1.95;;;1.15;;
19280;SDS011;9774;52.034;5.342;2023-07-29T02:31:38;1.83;;;1.42;;
19280;SDS011;9774;52.034;5.342;2023-07-29T02:34:06;2.28;;;1.65;;
19280;SDS011;9774;52.034;5.342;2023-07-29T02:36:33;2.60;;;1.63;;
19280;SDS011;9774;52.034;5.342;2023-07-29T02:39:00;2.03;;;1.52;;
19280;SDS011;9774;52.034;5.342;2023-07-29T02:41:27;3.28;;;1.80;;
19280;SDS011;9774;52.034;5.342;2023-07-29T02:43:55;3.65;;;2.28;;
19280;SDS011;9774;52.034;5.342;2023-07-29T02:46:22;2.55;;;1.70;;
19280;SDS011;9774;52.034;5.342;2023-07-29T02:48:50;3.35;;;2.15;;
19280;SDS011;9774;52.034;5.342;2023-07-29T02:51:18;2.88;;;1.60;;
19280;SDS011;9774;52.034;5.342;2023-07-29T02:53:45;3.15;;;1.67;;
19280;SDS011;9774;52.034;5.342;2023-07-29T02:56:12;2.88;;;2.15;;
19280;SDS011;9774;52.034;5.342;2023-07-29T02:58:39;3.20;;;2.10;;
19280;SDS011;9774;52.034;5.342;2023-07-29T03:01:07;2.50;;;2.03;;
19280;SDS011;9774;52.034;5.342;2023-07-29T03:03:34;3.60;;;1.65;;
19280;SDS011;9774;52.034;5.342;2023-07-29T03:06:03;4.07;;;1.92;;
19280;SDS011;9774;52.034;5.342;2023-07-29T03:08:32;2.40;;;1.73;;
19280;SDS011;9774;52.034;5.342;2023-07-29T03:11:04;2.90;;;1.90;;
19280;SDS011;9774;52.034;5.342;2023-07-29T03:13:32;4.38;;;2.40;;
19280;SDS011;9774;52.034;5.342;2023-07-29T03:16:04;3.30;;;1.77;;
19280;SDS011;9774;52.034;5.342;2023-07-29T03:18:32;3.53;;;1.30;;
19280;SDS011;9774;52.034;5.342;2023-07-29T03:20:59;1.60;;;1.50;;
19280;SDS011;9774;52.034;5.342;2023-07-29T03:23:29;2.22;;;1.63;;
19280;SDS011;9774;52.034;5.342;2023-07-29T03:25:57;1.88;;;1.67;;
19280;SDS011;9774;52.034;5.342;2023-07-29T03:28:25;3.95;;;1.60;;
19280;SDS011;9774;52.034;5.342;2023-07-29T03:30:53;1.70;;;1.50;;
19280;SDS011;9774;52.034;5.342;2023-07-29T03:33:21;3.00;;;1.70;;
19280;SDS011;9774;52.034;5.342;2023-07-29T03:35:48;2.75;;;1.83;;
19280;SDS011;9774;52.034;5.342;2023-07-29T03:38:16;2.22;;;1.58;;
19280;SDS011;9774;52.034;5.342;2023-07-29T03:40:44;2.40;;;1.90;;
19280;SDS011;9774;52.034;5.342;2023-07-29T03:43:12;3.15;;;1.35;;
19280;SDS011;9774;52.034;5.342;2023-07-29T03:45:40;2.08;;;1.35;;
19280;SDS011;9774;52.034;5.342;2023-07-29T03:48:07;2.30;;;1.77;;
19280;SDS011;9774;52.034;5.342;2023-07-29T03:50:35;2.83;;;1.83;;
19280;SDS011;9774;52.034;5.342;2023-07-29T03:53:03;2.40;;;1.60;;
19280;SDS011;9774;52.034;5.342;2023-07-29T03:55:30;2.03;;;1.48;;
19280;SDS011;9774;52.034;5.342;2023-07-29T03:57:59;1.98;;;1.40;;
19280;SDS011;9774;52.034;5.342;2023-07-29T04:00:27;1.58;;;1.08;;
19280;SDS011;9774;52.034;5.342;2023-07-29T04:02:54;1.77;;;1.45;;
19280;SDS011;9774;52.034;5.342;2023-07-29T04:05:21;2.97;;;1.52;;
19280;SDS011;9774;52.034;5.342;2023-07-29T04:07:49;2.20;;;1.52;;
19280;SDS011;9774;52.034;5.342;2023-07-29T04:10:16;2.65;;;1.42;;
19280;SDS011;9774;52.034;5.342;2023-07-29T04:12:43;3.47;;;1.35;;
19280;SDS011;9774;52.034;5.342;2023-07-29T04:15:12;2.60;;;1.65;;
19280;SDS011;9774;52.034;5.342;2023-07-29T04:17:39;1.90;;;1.27;;
19280;SDS011;9774;52.034;5.342;2023-07-29T04:20:07;2.20;;;1.33;;
19280;SDS011;9774;52.034;5.342;2023-07-29T04:22:35;2.83;;;1.73;;
19280;SDS011;9774;52.034;5.342;2023-07-29T04:25:02;3.55;;;1.55;;
19280;SDS011;9774;52.034;5.342;2023-07-29T04:27:30;2.00;;;1.38;;
19280;SDS011;9774;52.034;5.342;2023-07-29T04:29:57;2.03;;;1.38;;
19280;SDS011;9774;52.034;5.342;2023-07-29T04:32:26;2.30;;;1.23;;
19280;SDS011;9774;52.034;5.342;2023-07-29T04:34:53;2.10;;;1.35;;
19280;SDS011;9774;52.034;5.342;2023-07-29T04:37:21;1.50;;;1.10;;
19280;SDS011;9774;52.034;5.342;2023-07-29T04:39:48;1.23;;;1.05;;
19280;SDS011;9774;52.034;5.342;2023-07-29T04:42:15;1.27;;;1.15;;
19280;SDS011;9774;52.034;5.342;2023-07-29T04:44:43;1.77;;;1.27;;
19280;SDS011;9774;52.034;5.342;2023-07-29T04:47:10;3.83;;;1.38;;
19280;SDS011;9774;52.034;5.342;2023-07-29T04:49:39;1.30;;;1.08;;
19280;SDS011;9774;52.034;5.342;2023-07-29T04:52:06;2.30;;;1.50;;
19280;SDS011;9774;52.034;5.342;2023-07-29T04:54:33;2.22;;;1.42;;
19280;SDS011;9774;52.034;5.342;2023-07-29T04:57:01;2.67;;;1.67;;
19280;SDS011;9774;52.034;5.342;2023-07-29T04:59:28;2.10;;;1.55;;
19280;SDS011;9774;52.034;5.342;2023-07-29T05:01:55;4.07;;;1.25;;
19280;SDS011;9774;52.034;5.342;2023-07-29T05:04:23;2.13;;;1.42;;
19280;SDS011;9774;52.034;5.342;2023-07-29T05:06:52;1.42;;;1.20;;
19280;SDS011;9774;52.034;5.342;2023-07-29T05:09:19;2.95;;;1.48;;
19280;SDS011;9774;52.034;5.342;2023-07-29T05:11:46;2.15;;;1.55;;
19280;SDS011;9774;52.034;5.342;2023-07-29T05:14:14;2.92;;;1.70;;
19280;SDS011;9774;52.034;5.342;2023-07-29T05:16:43;2.85;;;1.35;;
19280;SDS011;9774;52.034;5.342;2023-07-29T05:19:11;1.65;;;1.05;;
19280;SDS011;9774;52.034;5.342;2023-07-29T05:21:38;2.67;;;1.38;;
19280;SDS011;9774;52.034;5.342;2023-07-29T05:24:07;1.75;;;1.30;;
19280;SDS011;9774;52.034;5.342;2023-07-29T05:26:34;2.08;;;1.33;;
19280;SDS011;9774;52.034;5.342;2023-07-29T05:29:02;1.95;;;1.38;;
19280;SDS011;9774;52.034;5.342;2023-07-29T05:31:30;3.08;;;1.88;;
19280;SDS011;9774;52.034;5.342;2023-07-29T05:33:57;2.45;;;1.35;;
19280;SDS011;9774;52.034;5.342;2023-07-29T05:36:25;2.42;;;1.67;;
19280;SDS011;9774;52.034;5.342;2023-07-29T05:38:52;2.97;;;2.25;;
19280;SDS011;9774;52.034;5.342;2023-07-29T05:41:21;2.10;;;1.60;;
19280;SDS011;9774;52.034;5.342;2023-07-29T05:43:48;2.58;;;1.33;;
19280;SDS011;9774;52.034;5.342;2023-07-29T05:46:15;2.50;;;1.38;;
19280;SDS011;9774;52.034;5.342;2023-07-29T05:48:42;3.33;;;1.92;;
19280;SDS011;9774;52.034;5.342;2023-07-29T05:51:10;2.17;;;1.63;;
19280;SDS011;9774;52.034;5.342;2023-07-29T05:53:37;2.65;;;1.60;;
19280;SDS011;9774;52.034;5.342;2023-07-29T05:56:04;2.28;;;1.58;;
19280;SDS011;9774;52.034;5.342;2023-07-29T05:58:33;2.58;;;1.50;;
19280;SDS011;9774;52.034;5.342;2023-07-29T06:01:00;2.70;;;2.10;;
19280;SDS011;9774;52.034;5.342;2023-07-29T06:03:27;2.75;;;1.80;;
19280;SDS011;9774;52.034;5.342;2023-07-29T06:05:54;2.30;;;1.80;;
19280;SDS011;9774;52.034;5.342;2023-07-29T06:08:22;2.78;;;1.73;;
19280;SDS011;9774;52.034;5.342;2023-07-29T06:10:49;4.05;;;1.75;;
19280;SDS011;9774;52.034;5.342;2023-07-29T06:13:16;3.40;;;1.95;;
19280;SDS011;9774;52.034;5.342;2023-07-29T06:15:45;3.08;;;1.75;;
19280;SDS011;9774;52.034;5.342;2023-07-29T06:18:12;2.17;;;1.60;;
19280;SDS011;9774;52.034;5.342;2023-07-29T06:20:39;2.85;;;1.80;;
19280;SDS011;9774;52.034;5.342;2023-07-29T06:23:07;3.45;;;1.98;;
19280;SDS011;9774;52.034;5.342;2023-07-29T06:25:35;2.90;;;2.08;;
19280;SDS011;9774;52.034;5.342;2023-07-29T06:28:02;2.47;;;1.88;;
19280;SDS011;9774;52.034;5.342;2023-07-29T06:30:29;1.85;;;1.42;;
19280;SDS011;9774;52.034;5.342;2023-07-29T06:32:58;4.13;;;1.90;;
19280;SDS011;9774;52.034;5.342;2023-07-29T06:35:25;2.42;;;1.50;;
19280;SDS011;9774;52.034;5.342;2023-07-29T06:37:52;3.80;;;2.10;;
19280;SDS011;9774;52.034;5.342;2023-07-29T06:40:20;3.25;;;2.25;;
19280;SDS011;9774;52.034;5.342;2023-07-29T06:42:47;2.58;;;2.15;;
19280;SDS011;9774;52.034;5.342;2023-07-29T06:45:14;3.05;;;2.22;;
19280;SDS011;9774;52.034;5.342;2023-07-29T06:47:42;5.68;;;2.35;;
19280;SDS011;9774;52.034;5.342;2023-07-29T06:50:10;2.90;;;1.83;;
19280;SDS011;9774;52.034;5.342;2023-07-29T06:52:38;4.68;;;2.22;;
19280;SDS011;9774;52.034;5.342;2023-07-29T06:55:05;2.80;;;2.15;;
19280;SDS011;9774;52.034;5.342;2023-07-29T06:57:33;3.25;;;2.58;;
19280;SDS011;9774;52.034;5.342;2023-07-29T07:00:01;2.17;;;1.92;;
19280;SDS011;9774;52.034;5.342;2023-07-29T07:02:29;2.88;;;1.90;;
19280;SDS011;9774;52.034;5.342;2023-07-29T07:04:56;4.40;;;2.35;;
19280;SDS011;9774;52.034;5.342;2023-07-29T07:07:24;3.15;;;1.65;;
19280;SDS011;9774;52.034;5.342;2023-07-29T07:09:52;3.25;;;1.92;;
19280;SDS011;9774;52.034;5.342;2023-07-29T07:12:19;4.70;;;2.25;;
19280;SDS011;9774;52.034;5.342;2023-07-29T07:14:46;2.70;;;1.92;;
19280;SDS011;9774;52.034;5.342;2023-07-29T07:17:14;3.05;;;2.40;;
19280;SDS011;9774;52.034;5.342;2023-07-29T07:19:41;3.60;;;2.58;;
19280;SDS011;9774;52.034;5.342;2023-07-29T07:22:08;2.63;;;2.42;;
19280;SDS011;9774;52.034;5.342;2023-07-29T07:24:37;3.40;;;2.13;;
19280;SDS011;9774;52.034;5.342;2023-07-29T07:27:04;3.70;;;2.47;;
19280;SDS011;9774;52.034;5.342;2023-07-29T07:29:32;4.95;;;2.63;;
19280;SDS011;9774;52.034;5.342;2023-07-29T07:31:59;2.10;;;1.88;;
19280;SDS011;9774;52.034;5.342;2023-07-29T07:34:27;2.20;;;2.00;;
19280;SDS011;9774;52.034;5.342;2023-07-29T07:36:54;4.00;;;2.50;;
19280;SDS011;9774;52.034;5.342;2023-07-29T07:39:21;4.82;;;2.08;;
19280;SDS011;9774;52.034;5.342;2023-07-29T07:41:50;3.00;;;2.28;;
19280;SDS011;9774;52.034;5.342;2023-07-29T07:44:17;4.47;;;2.25;;
19280;SDS011;9774;52.034;5.342;2023-07-29T07:46:45;3.38;;;2.55;;
19280;SDS011;9774;52.034;5.342;2023-07-29T07:49:12;3.83;;;2.40;;
19280;SDS011;9774;52.034;5.342;2023-07-29T07:51:40;5.82;;;2.67;;
19280;SDS011;9774;52.034;5.342;2023-07-29T07:54:09;2.45;;;2.15;;
19280;SDS011;9774;52.034;5.342;2023-07-29T07:56:36;2.35;;;2.03;;
19280;SDS011;9774;52.034;5.342;2023-07-29T07:59:05;5.13;;;2.45;;
19280;SDS011;9774;52.034;5.342;2023-07-29T08:01:34;2.22;;;1.63;;
19280;SDS011;9774;52.034;5.342;2023-07-29T08:04:01;2.10;;;1.90;;
19280;SDS011;9774;52.034;5.342;2023-07-29T08:06:29;2.83;;;2.10;;
19280;SDS011;9774;52.034;5.342;2023-07-29T08:08:57;2.08;;;1.88;;
19280;SDS011;9774;52.034;5.342;2023-07-29T08:11:24;2.92;;;1.98;;
19280;SDS011;9774;52.034;5.342;2023-07-29T08:13:52;2.72;;;1.50;;
19280;SDS011;9774;52.034;5.342;2023-07-29T08:16:20;2.47;;;1.85;;
19280;SDS011;9774;52.034;5.342;2023-07-29T08:18:48;4.03;;;1.48;;
19280;SDS011;9774;52.034;5.342;2023-07-29T08:21:15;1.50;;;1.40;;
19280;SDS011;9774;52.034;5.342;2023-07-29T08:23:42;1.92;;;1.60;;
19280;SDS011;9774;52.034;5.342;2023-07-29T08:26:09;3.63;;;1.45;;
19280;SDS011;9774;52.034;5.342;2023-07-29T08:28:37;4.47;;;1.75;;
19280;SDS011;9774;52.034;5.342;2023-07-29T08:31:06;1.35;;;1.25;;
19280;SDS011;9774;52.034;5.342;2023-07-29T08:33:35;2.08;;;1.77;;
19280;SDS011;9774;52.034;5.342;2023-07-29T08:36:02;2.63;;;1.20;;
19280;SDS011;9774;52.034;5.342;2023-07-29T08:38:30;3.22;;;1.80;;
19280;SDS011;9774;52.034;5.342;2023-07-29T08:40:58;1.70;;;1.33;;
19280;SDS011;9774;52.034;5.342;2023-07-29T08:43:32;2.72;;;1.30;;
19280;SDS011;9774;52.034;5.342;2023-07-29T08:46:00;3.50;;;2.05;;
19280;SDS011;9774;52.034;5.342;2023-07-29T08:48:29;2.80;;;2.40;;
19280;SDS011;9774;52.034;5.342;2023-07-29T08:51:03;3.30;;;2.03;;
19280;SDS011;9774;52.034;5.342;2023-07-29T08:53:31;2.35;;;2.10;;
19280;SDS011;9774;52.034;5.342;2023-07-29T08:55:58;2.10;;;1.85;;
19280;SDS011;9774;52.034;5.342;2023-07-29T08:58:26;3.10;;;2.28;;
19280;SDS011;9774;52.034;5.342;2023-07-29T09:00:54;2.03;;;1.83;;
19280;SDS011;9774;52.034;5.342;2023-07-29T09:03:21;5.13;;;2.53;;
19280;SDS011;9774;52.034;5.342;2023-07-29T09:05:49;1.98;;;1.58;;
19280;SDS011;9774;52.034;5.342;2023-07-29T09:08:20;2.30;;;1.52;;
19280;SDS011;9774;52.034;5.342;2023-07-29T09:10:47;2.55;;;1.80;;
19280;SDS011;9774;52.034;5.342;2023-07-29T09:13:15;2.15;;;1.92;;
19280;SDS011;9774;52.034;5.342;2023-07-29T09:15:42;2.45;;;1.70;;
19280;SDS011;9774;52.034;5.342;2023-07-29T09:18:10;4.50;;;1.88;;
19280;SDS011;9774;52.034;5.342;2023-07-29T09:20:38;2.30;;;2.10;;
19280;SDS011;9774;52.034;5.342;2023-07-29T09:23:07;3.03;;;2.00;;
19280;SDS011;9774;52.034;5.342;2023-07-29T09:25:37;2.10;;;1.90;;
19280;SDS011;9774;52.034;5.342;2023-07-29T09:28:07;2.47;;;2.28;;
19280;SDS011;9774;52.034;5.342;2023-07-29T09:30:36;2.55;;;2.35;;
19280;SDS011;9774;52.034;5.342;2023-07-29T09:33:04;3.08;;;2.00;;
19280;SDS011;9774;52.034;5.342;2023-07-29T09:35:32;2.53;;;1.50;;
19280;SDS011;9774;52.034;5.342;2023-07-29T09:38:01;1.85;;;1.73;;
19280;SDS011;9774;52.034;5.342;2023-07-29T09:40:34;2.83;;;1.52;;
19280;SDS011;9774;52.034;5.342;2023-07-29T09:43:03;1.48;;;1.27;;
19280;SDS011;9774;52.034;5.342;2023-07-29T09:45:32;1.67;;;1.55;;
19280;SDS011;9774;52.034;5.342;2023-07-29T09:48:01;1.63;;;1.52;;
19280;SDS011;9774;52.034;5.342;2023-07-29T09:50:30;2.03;;;1.83;;
19280;SDS011;9774;52.034;5.342;2023-07-29T09:52:57;1.95;;;1.42;;
19280;SDS011;9774;52.034;5.342;2023-07-29T09:55:25;1.23;;;1.13;;
19280;SDS011;9774;52.034;5.342;2023-07-29T09:57:55;2.17;;;1.10;;
19280;SDS011;9774;52.034;5.342;2023-07-29T10:00:26;2.13;;;1.33;;
19280;SDS011;9774;52.034;5.342;2023-07-29T10:02:53;1.63;;;1.45;;
19280;SDS011;9774;52.034;5.342;2023-07-29T10:05:21;2.30;;;1.20;;
19280;SDS011;9774;52.034;5.342;2023-07-29T10:07:49;1.25;;;1.00;;
19280;SDS011;9774;52.034;5.342;2023-07-29T10:10:16;1.13;;;1.02;;
19280;SDS011;9774;52.034;5.342;2023-07-29T10:12:44;1.10;;;1.00;;
19280;SDS011;9774;52.034;5.342;2023-07-29T10:15:13;1.98;;;0.98;;
19280;SDS011;9774;52.034;5.342;2023-07-29T10:17:40;1.85;;;1.05;;
19280;SDS011;9774;52.034;5.342;2023-07-29T10:20:08;1.35;;;1.25;;
19280;SDS011;9774;52.034;5.342;2023-07-29T10:22:38;1.10;;;0.85;;
19280;SDS011;9774;52.034;5.342;2023-07-29T10:25:08;0.60;;;0.60;;
19280;SDS011;9774;52.034;5.342;2023-07-29T10:27:42;1.05;;;0.80;;
19280;SDS011;9774;52.034;5.342;2023-07-29T10:30:14;1.02;;;0.80;;
19280;SDS011;9774;52.034;5.342;2023-07-29T10:32:42;2.40;;;0.68;;
19280;SDS011;9774;52.034;5.342;2023-07-29T10:35:10;1.70;;;0.55;;
19280;SDS011;9774;52.034;5.342;2023-07-29T10:37:38;1.00;;;0.70;;
19280;SDS011;9774;52.034;5.342;2023-07-29T10:40:07;0.85;;;0.77;;
19280;SDS011;9774;52.034;5.342;2023-07-29T10:42:36;1.05;;;0.80;;
19280;SDS011;9774;52.034;5.342;2023-07-29T10:45:21;1.58;;;1.00;;
19280;SDS011;9774;52.034;5.342;2023-07-29T10:47:48;0.68;;;0.57;;
19280;SDS011;9774;52.034;5.342;2023-07-29T10:50:19;1.25;;;0.95;;
19280;SDS011;9774;52.034;5.342;2023-07-29T10:52:51;1.30;;;1.20;;
19280;SDS011;9774;52.034;5.342;2023-07-29T10:55:28;1.58;;;0.93;;
19280;SDS011;9774;52.034;5.342;2023-07-29T10:58:04;1.45;;;0.95;;
19280;SDS011;9774;52.034;5.342;2023-07-29T11:00:34;1.15;;;1.02;;
19280;SDS011;9774;52.034;5.342;2023-07-29T11:03:02;1.13;;;0.70;;
19280;SDS011;9774;52.034;5.342;2023-07-29T11:05:41;1.33;;;0.98;;
19280;SDS011;9774;52.034;5.342;2023-07-29T11:08:19;1.48;;;0.90;;
19280;SDS011;9774;52.034;5.342;2023-07-29T11:10:58;1.75;;;1.00;;
19280;SDS011;9774;52.034;5.342;2023-07-29T11:13:27;1.27;;;0.68;;
19280;SDS011;9774;52.034;5.342;2023-07-29T11:15:56;0.90;;;0.80;;
19280;SDS011;9774;52.034;5.342;2023-07-29T11:18:26;1.40;;;1.02;;
19280;SDS011;9774;52.034;5.342;2023-07-29T11:20:55;1.10;;;1.00;;
19280;SDS011;9774;52.034;5.342;2023-07-29T11:23:30;1.05;;;0.95;;
19280;SDS011;9774;52.034;5.342;2023-07-29T11:25:58;1.33;;;0.80;;
19280;SDS011;9774;52.034;5.342;2023-07-29T11:28:26;1.55;;;1.40;;
19280;SDS011;9774;52.034;5.342;2023-07-29T11:30:54;1.73;;;1.23;;
19280;SDS011;9774;52.034;5.342;2023-07-29T11:33:24;1.23;;;1.10;;
19280;SDS011;9774;52.034;5.342;2023-07-29T11:35:53;1.70;;;1.40;;
19280;SDS011;9774;52.034;5.342;2023-07-29T11:38:20;1.35;;;1.20;;
19280;SDS011;9774;52.034;5.342;2023-07-29T11:40:55;1.35;;;1.25;;
19280;SDS011;9774;52.034;5.342;2023-07-29T11:43:23;1.65;;;1.02;;
19280;SDS011;9774;52.034;5.342;2023-07-29T11:45:51;1.73;;;1.15;;
19280;SDS011;9774;52.034;5.342;2023-07-29T11:48:21;1.42;;;0.90;;
19280;SDS011;9774;52.034;5.342;2023-07-29T11:50:53;2.20;;;0.98;;
19280;SDS011;9774;52.034;5.342;2023-07-29T11:53:21;1.30;;;1.17;;
19280;SDS011;9774;52.034;5.342;2023-07-29T11:55:49;1.35;;;1.00;;
19280;SDS011;9774;52.034;5.342;2023-07-29T11:58:18;1.58;;;0.90;;
19280;SDS011;9774;52.034;5.342;2023-07-29T12:00:46;1.85;;;1.30;;
19280;SDS011;9774;52.034;5.342;2023-07-29T12:03:14;1.35;;;1.02;;
19280;SDS011;9774;52.034;5.342;2023-07-29T12:05:44;1.20;;;0.98;;
19280;SDS011;9774;52.034;5.342;2023-07-29T12:08:11;1.30;;;1.10;;
19280;SDS011;9774;52.034;5.342;2023-07-29T12:10:39;1.35;;;1.02;;
19280;SDS011;9774;52.034;5.342;2023-07-29T12:13:07;1.52;;;0.85;;
19280;SDS011;9774;52.034;5.342;2023-07-29T12:15:37;1.88;;;0.90;;
19280;SDS011;9774;52.034;5.342;2023-07-29T12:18:05;1.17;;;0.93;;
19280;SDS011;9774;52.034;5.342;2023-07-29T12:20:32;1.60;;;1.17;;
19280;SDS011;9774;52.034;5.342;2023-07-29T12:23:02;1.80;;;1.30;;
19280;SDS011;9774;52.034;5.342;2023-07-29T12:25:30;1.35;;;1.20;;
19280;SDS011;9774;52.034;5.342;2023-07-29T12:28:01;1.83;;;1.33;;
19280;SDS011;9774;52.034;5.342;2023-07-29T12:30:29;1.45;;;1.30;;
19280;SDS011;9774;52.034;5.342;2023-07-29T12:32:56;2.55;;;1.20;;
19280;SDS011;9774;52.034;5.342;2023-07-29T12:35:24;0.95;;;0.88;;
19280;SDS011;9774;52.034;5.342;2023-07-29T12:37:59;1.00;;;0.80;;
19280;SDS011;9774;52.034;5.342;2023-07-29T12:40:28;1.15;;;0.80;;
19280;SDS011;9774;52.034;5.342;2023-07-29T12:42:55;0.90;;;0.80;;
19280;SDS011;9774;52.034;5.342;2023-07-29T12:45:23;2.72;;;0.75;;
19280;SDS011;9774;52.034;5.342;2023-07-29T12:47:52;1.13;;;0.95;;
19280;SDS011;9774;52.034;5.342;2023-07-29T12:50:18;1.00;;;0.75;;
19280;SDS011;9774;52.034;5.342;2023-07-29T12:52:46;0.88;;;0.80;;
19280;SDS011;9774;52.034;5.342;2023-07-29T12:55:13;1.67;;;1.00;;
19280;SDS011;9774;52.034;5.342;2023-07-29T12:57:42;1.42;;;0.68;;
19280;SDS011;9774;52.034;5.342;2023-07-29T13:00:10;1.10;;;0.90;;
19280;SDS011;9774;52.034;5.342;2023-07-29T13:02:38;0.82;;;0.70;;
19280;SDS011;9774;52.034;5.342;2023-07-29T13:05:05;0.98;;;0.82;;
19280;SDS011;9774;52.034;5.342;2023-07-29T13:07:35;1.60;;;0.93;;
19280;SDS011;9774;52.034;5.342;2023-07-29T13:10:03;0.88;;;0.68;;
19280;SDS011;9774;52.034;5.342;2023-07-29T13:12:30;3.55;;;1.00;;
19280;SDS011;9774;52.034;5.342;2023-07-29T13:14:59;0.85;;;0.80;;
19280;SDS011;9774;52.034;5.342;2023-07-29T13:17:26;2.72;;;1.15;;
19280;SDS011;9774;52.034;5.342;2023-07-29T13:19:54;1.75;;;1.00;;
19280;SDS011;9774;52.034;5.342;2023-07-29T13:22:21;1.75;;;1.20;;
19280;SDS011;9774;52.034;5.342;2023-07-29T13:24:48;1.10;;;0.80;;
19280;SDS011;9774;52.034;5.342;2023-07-29T13:27:15;1.65;;;0.98;;
19280;SDS011;9774;52.034;5.342;2023-07-29T13:29:43;4.63;;;1.23;;
19280;SDS011;9774;52.034;5.342;2023-07-29T13:32:12;1.10;;;1.00;;
19280;SDS011;9774;52.034;5.342;2023-07-29T13:34:39;1.35;;;1.13;;
19280;SDS011;9774;52.034;5.342;2023-07-29T13:37:06;1.10;;;1.00;;
19280;SDS011;9774;52.034;5.342;2023-07-29T13:39:34;4.65;;;1.60;;
19280;SDS011;9774;52.034;5.342;2023-07-29T13:42:01;1.50;;;1.08;;
19280;SDS011;9774;52.034;5.342;2023-07-29T13:44:28;1.73;;;1.13;;
19280;SDS011;9774;52.034;5.342;2023-07-29T13:46:55;1.73;;;1.63;;
19280;SDS011;9774;52.034;5.342;2023-07-29T13:49:24;1.92;;;1.70;;
19280;SDS011;9774;52.034;5.342;2023-07-29T13:51:51;1.50;;;1.40;;
19280;SDS011;9774;52.034;5.342;2023-07-29T13:54:19;2.33;;;1.40;;
19280;SDS011;9774;52.034;5.342;2023-07-29T13:56:46;1.52;;;1.42;;
19280;SDS011;9774;52.034;5.342;2023-07-29T13:59:13;1.60;;;1.50;;
19280;SDS011;9774;52.034;5.342;2023-07-29T14:01:41;1.52;;;1.42;;
19280;SDS011;9774;52.034;5.342;2023-07-29T14:04:08;1.58;;;1.38;;
19280;SDS011;9774;52.034;5.342;2023-07-29T14:06:37;1.95;;;1.58;;
19280;SDS011;9774;52.034;5.342;2023-07-29T14:09:04;2.28;;;1.65;;
19280;SDS011;9774;52.034;5.342;2023-07-29T14:11:31;1.70;;;1.60;;
19280;SDS011;9774;52.034;5.342;2023-07-29T14:13:58;1.75;;;1.65;;
19280;SDS011;9774;52.034;5.342;2023-07-29T14:16:26;1.30;;;1.20;;
19280;SDS011;9774;52.034;5.342;2023-07-29T14:18:53;2.05;;;1.30;;
19280;SDS011;9774;52.034;5.342;2023-07-29T14:21:20;2.05;;;1.30;;
19280;SDS011;9774;52.034;5.342;2023-07-29T14:23:49;1.35;;;1.20;;
19280;SDS011;9774;52.034;5.342;2023-07-29T14:26:16;1.35;;;1.25;;
19280;SDS011;9774;52.034;5.342;2023-07-29T14:28:43;1.15;;;1.00;;
19280;SDS011;9774;52.034;5.342;2023-07-29T14:31:10;0.80;;;0.80;;
19280;SDS011;9774;52.034;5.342;2023-07-29T14:33:38;1.10;;;0.90;;
19280;SDS011;9774;52.034;5.342;2023-07-29T14:36:05;1.92;;;0.90;;
19280;SDS011;9774;52.034;5.342;2023-07-29T14:38:33;1.00;;;0.75;;
19280;SDS011;9774;52.034;5.342;2023-07-29T14:41:02;2.10;;;0.90;;
19280;SDS011;9774;52.034;5.342;2023-07-29T14:43:30;1.08;;;0.80;;
19280;SDS011;9774;52.034;5.342;2023-07-29T14:45:57;3.17;;;1.00;;
19280;SDS011;9774;52.034;5.342;2023-07-29T14:48:24;1.27;;;0.65;;
19280;SDS011;9774;52.034;5.342;2023-07-29T14:50:51;1.30;;;0.80;;
19280;SDS011;9774;52.034;5.342;2023-07-29T14:53:19;0.95;;;0.50;;
19280;SDS011;9774;52.034;5.342;2023-07-29T14:55:46;1.60;;;0.47;;
19280;SDS011;9774;52.034;5.342;2023-07-29T14:58:15;0.80;;;0.52;;
19280;SDS011;9774;52.034;5.342;2023-07-29T15:00:42;0.90;;;0.65;;
19280;SDS011;9774;52.034;5.342;2023-07-29T15:03:09;1.00;;;0.77;;
19280;SDS011;9774;52.034;5.342;2023-07-29T15:05:37;1.25;;;0.77;;